Lauderdale, MS (39335)

9:11 PM CDT on July 09, 2014 (GMT -0500)
Key (KMEI) Elev 308 ft | 32.33 °N, 88.75 °W | Change Station

Current weather conditions updated 13 minutes ago

Clear
Clear
75 °F
Feels Like 75 °F
N
5
Wind Variable Wind from SSW

Tomorrow is forecast to be nearly the same temperature as today. Showers and thunderstorms.

Today
High -- | Low -- °F
--% Chance of Precip.
Yesterday
High -- | Low -- °F
Precip. -- in
5:55 AM 8:04 PM
Waxing Gibbous, 92% visible
Pressure 30.03 in
Visibility 10.0 miles
Clouds Clear
Dew Point 70 °F
Humidity 84%
Rainfall 0.06 in
Snow Depth Not available.
UV 0 out of 12
Pollen 3.00 out of 12
Air Quality Not available.
Flu Activity No Activity
METAR KMEI 100158Z 21004KT 10SM CLR 24/21 A3004 RMK AO2 SLP167 P0001 T02390211

More Conditions Fewer Conditions

Pressure 30.03 in
Visibility 10.0 miles
Clouds Clear
Dew Point 70 °F
Humidity 84%
Rainfall 0.06 in
Snow Depth Not available.
UV 0 out of 12
Pollen 3.00 out of 12
Air Quality Not available.
Flu Activity No Activity
METAR KMEI 100158Z 21004KT 10SM CLR 24/21 A3004 RMK AO2 SLP167 P0001 T02390211

More Conditions Fewer Conditions

10-Day Weather Forecast

Almanac

Astronomy

Jul. 09, 2014 Rise Set
Actual Time 5:55 AM CDT 8:04 PM CDT
Civil Twilight 5:26 AM CDT 8:32 PM CDT
Nautical Twilight 4:52 AM CDT 9:06 PM CDT
Astronomical Twilight 4:15 AM CDT 9:43 PM CDT
Moon 5:19 PM CDT (7/9) 3:08 AM CDT (7/9)
Length of Visible Light 15h 05m
Length of Day
14h 09m
Tomorrow will be 0m 48s shorter.
Waxing Gibbous, 92% of the Moon is Illuminated
Today
Waxing Gibbous
Jul 12
Full
Jul 18
Last Quarter
Jul 26
New
Aug 3
First Quarter

Today's Extremes

State Highs State Lows

Community

WunderPhotos

Upload Photos

1,732,033 photos uploaded!

Nearby

Snow Depth

Station Depth Elevation
No new snow has been reported.

Earthquake Activity

City Distance Mag. Time & Date
No recent earthquake activity has been reported nearby.
Minimum magnitude displayed is 2.5.

Coastal Water Temperatures

Place Temperature
No Stations Reporting

Nearby Weather Stations

Station Location Temp. Heat Index Dew Point Humidity Wind Precip. Elev Updated Type
Downtown Pinesprings, 9.5 miles N of Mer, Meridian, MS 74.6 °F 72 °F - - North  at  0.0 mph 0.00 in / hr 412 ft 9:11 PM CDT Rapid Fire
RAWS LAUDERDALE MS, Toomsuba, MS 77 °F 79 °F 68 °F 74% ESE  at  3 mph 0.00 in / hr 221 ft 8:13 PM CDT MADIS
CRN MISS ST EXP STN NEWTON 5 ENE MS , Hickory, MS - - - 90% North  at  1 mph 0.00 in / hr 374 ft 8:00 PM CDT MADIS

Show More Stations Show Fewer Stations